Time;durP1;ratioP1;P1;durP2;ratioP2;P2;SDS_P1;SDS_P2;PMS_P1;PMS_P2;Temp;Humidity;BMP_temperature;BMP_pressure;BME280_temperature;BME280_humidity;BME280_pressure;Samples;Min_cycle;Max_cycle;Signal;HPM_P1;HPM_P2
2022/07/31 00:02:05;;;;;;;7.00;2.78;;;;;16.70;99035.00;;;;5019579;28;89612;-66
2022/07/31 00:04:31;;;;;;;4.75;2.28;;;17.00;99.90;16.80;99042.00;;;;5003773;28;89631;-65
2022/07/31 00:06:57;;;;;;;5.85;2.55;;;;;16.90;99035.00;;;;5022093;28;87133;-66
2022/07/31 00:09:24;;;;;;;9.82;3.50;;;;;16.70;99052.00;;;;5022266;28;87499;-66
2022/07/31 00:11:50;;;;;;;6.68;3.40;;;16.90;99.90;16.60;99034.00;;;;5021710;28;87448;-65
2022/07/31 00:14:16;;;;;;;11.52;3.17;;;;;16.60;99035.00;;;;5021748;28;87494;-65
2022/07/31 00:16:43;;;;;;;6.60;2.35;;;;;16.60;99036.00;;;;5021248;28;87417;-66
2022/07/31 00:19:09;;;;;;;8.57;2.90;;;;;16.50;99054.00;;;;5021148;28;86617;-65
2022/07/31 00:21:36;;;;;;;4.63;2.53;;;16.40;99.90;16.30;99040.00;;;;5021719;28;88851;-66
2022/07/31 00:24:02;;;;;;;6.78;2.40;;;;;16.20;99033.00;;;;5021248;28;88173;-66
2022/07/31 00:26:29;;;;;;;6.07;2.45;;;16.30;99.90;16.20;99031.00;;;;5020625;28;88286;-66
2022/07/31 00:28:55;;;;;;;7.35;2.65;;;;;16.30;99029.00;;;;5022435;28;87653;-67
2022/07/31 00:31:23;;;;;;;5.88;2.33;;;16.40;99.90;16.30;99026.00;;;;5021727;28;87397;-66
2022/07/31 00:33:49;;;;;;;6.38;2.42;;;;;16.20;99032.00;;;;5003202;28;87232;-66
2022/07/31 00:36:15;;;;;;;8.50;2.70;;;16.10;99.90;16.10;99026.00;;;;5004026;28;87488;-66
2022/07/31 00:38:42;;;;;;;5.60;2.60;;;16.40;99.90;16.10;99025.00;;;;5003992;28;87279;-64
2022/07/31 00:41:08;;;;;;;9.18;2.47;;;16.10;99.90;16.10;99025.00;;;;5004311;28;87774;-64
2022/07/31 00:43:34;;;;;;;6.53;2.97;;;;;16.00;99020.00;;;;5021629;28;87375;-64
2022/07/31 00:46:01;;;;;;;5.35;2.65;;;15.90;99.90;15.90;99022.00;;;;5020028;28;87070;-64
2022/07/31 00:48:28;;;;;;;8.20;2.58;;;;;15.80;99025.00;;;;5021718;28;86993;-64
2022/07/31 00:50:55;;;;;;;5.68;2.83;;;15.90;99.90;15.60;99023.00;;;;5004270;28;89832;-64
2022/07/31 00:53:21;;;;;;;4.80;2.30;;;;;15.50;99027.00;;;;5002112;28;88756;-64
2022/07/31 00:55:48;;;;;;;7.68;2.55;;;;;15.70;99024.00;;;;5021253;28;87733;-63
2022/07/31 00:58:14;;;;;;;5.20;2.60;;;;;15.80;99025.00;;;;4986012;28;87708;-64
2022/07/31 01:00:40;;;;;;;5.80;2.42;;;15.80;99.90;15.80;99021.00;;;;5020983;28;87805;-64
2022/07/31 01:03:07;;;;;;;7.63;2.80;;;;;16.00;99018.00;;;;5020911;28;87328;-64
2022/07/31 01:05:33;;;;;;;6.75;2.42;;;;;16.10;99022.00;;;;5003792;28;87487;-64
2022/07/31 01:08:00;;;;;;;5.13;2.55;;;;;16.20;99030.00;;;;5021343;28;86314;-65
2022/07/31 01:10:48;;;;;;;5.75;3.00;;;16.40;99.90;16.20;99031.00;;;;5021229;28;87878;-65
2022/07/31 01:13:42;;;;;;;6.43;2.83;;;16.30;99.90;16.10;99021.00;;;;5002836;28;87464;-65
2022/07/31 01:16:10;;;;;;;7.90;3.30;;;16.00;99.90;15.80;99029.00;;;;5003290;28;87997;-64
2022/07/31 01:18:38;;;;;;;10.65;3.00;;;15.90;99.90;15.60;99017.00;;;;5020499;28;87085;-64
2022/07/31 01:21:08;;;;;;;9.05;3.22;;;15.80;99.90;15.50;99029.00;;;;4986366;28;88306;-65
2022/07/31 01:24:21;;;;;;;7.32;2.55;;;15.80;99.90;15.60;99030.00;;;;5020322;28;87604;-64
2022/07/31 01:28:22;;;;;;;7.60;3.17;;;15.90;99.90;15.80;99031.00;;;;4998677;28;87668;-65
2022/07/31 01:31:01;;;;;;;8.73;2.65;;;16.10;99.90;16.00;99032.00;;;;4953409;28;87634;-64
2022/07/31 01:33:40;;;;;;;10.35;3.38;;;16.20;99.90;16.10;99013.00;;;;4952303;28;87708;-64
2022/07/31 01:36:14;;;;;;;8.13;3.13;;;16.20;99.90;16.10;99020.00;;;;4999155;28;87115;-64
2022/07/31 01:38:46;;;;;;;7.20;2.80;;;16.30;99.90;16.10;99020.00;;;;5020426;28;87276;-64
2022/07/31 01:41:17;;;;;;;7.30;3.15;;;15.90;99.90;16.10;99018.00;;;;4982028;28;86994;-64
2022/07/31 01:43:47;;;;;;;9.75;2.95;;;16.30;99.90;16.10;99019.00;;;;5017128;28;88964;-64
2022/07/31 01:46:16;;;;;;;10.15;3.50;;;16.30;99.90;16.10;99010.00;;;;5001075;28;89255;-64
2022/07/31 01:48:43;;;;;;;13.68;3.10;;;16.20;99.90;16.10;99014.00;;;;5006065;28;86950;-64
2022/07/31 01:51:12;;;;;;;9.32;2.97;;;16.30;99.90;16.10;99019.00;;;;4986000;28;87324;-63
2022/07/31 01:53:39;;;;;;;8.57;2.97;;;16.10;99.90;16.00;99015.00;;;;5002902;28;87930;-63
2022/07/31 01:56:08;;;;;;;8.30;3.03;;;16.20;99.90;16.10;99016.00;;;;5001783;28;87172;-64
2022/07/31 01:58:38;;;;;;;7.22;2.85;;;16.30;99.90;16.20;99012.00;;;;5001357;28;87641;-64
2022/07/31 02:01:18;;;;;;;6.05;2.85;;;16.30;99.90;16.20;99020.00;;;;5019122;28;86301;-64
2022/07/31 02:03:45;;;;;;;5.57;2.38;;;16.40;99.90;16.30;99022.00;;;;5016555;28;87155;-64
2022/07/31 02:06:17;;;;;;;6.50;2.50;;;16.40;99.90;16.30;99016.00;;;;4981982;28;87518;-63
2022/07/31 02:08:46;;;;;;;7.97;2.88;;;16.40;99.90;16.30;99017.00;;;;5001001;28;88249;-64
2022/07/31 02:11:15;;;;;;;6.72;1.85;;;16.50;99.90;16.40;99019.00;;;;4979620;28;87896;-64
2022/07/31 02:13:43;;;;;;;9.25;2.67;;;16.30;99.90;16.30;99019.00;;;;5003804;28;88263;-64
2022/07/31 02:16:09;;;;;;;8.95;2.65;;;16.50;99.90;16.30;99021.00;;;;5001973;28;87737;-64
2022/07/31 02:18:37;;;;;;;10.00;2.10;;;16.60;99.90;16.30;99020.00;;;;5001870;28;87046;-64
2022/07/31 02:21:25;;;;;;;7.68;2.60;;;16.30;99.90;16.50;99021.00;;;;4999332;28;87345;-64
2022/07/31 02:23:52;;;;;;;8.57;2.85;;;16.40;99.90;16.50;99014.00;;;;5001675;28;88793;-64
2022/07/31 02:26:19;;;;;;;7.93;2.80;;;;;16.50;99014.00;;;;5020228;28;87275;-64
2022/07/31 02:28:47;;;;;;;7.55;2.90;;;16.50;99.90;16.40;99014.00;;;;5005005;28;87130;-64
2022/07/31 02:31:15;;;;;;;7.05;3.38;;;16.30;99.90;16.30;99011.00;;;;5002144;28;87352;-64
2022/07/31 02:33:46;;;;;;;8.20;3.20;;;16.30;99.90;16.20;99021.00;;;;5017871;28;89806;-64
2022/07/31 02:36:18;;;;;;;9.07;2.47;;;16.40;99.90;16.30;99006.00;;;;5002153;28;89339;-64
2022/07/31 02:38:46;;;;;;;5.70;2.40;;;17.30;99.90;17.00;99010.00;;;;5019260;28;86975;-64
2022/07/31 02:41:14;;;;;;;5.72;2.58;;;18.10;99.90;18.20;99008.00;;;;5001632;28;87661;-64
2022/07/31 02:43:42;;;;;;;6.10;2.17;;;18.90;99.90;19.40;99005.00;;;;5001820;28;87642;-64
2022/07/31 02:46:19;;;;;;;7.93;2.40;;;20.00;99.90;20.50;99007.00;;;;4986731;28;87125;-64
2022/07/31 02:48:46;;;;;;;7.10;2.28;;;20.90;99.90;21.50;99009.00;;;;5001286;28;87574;-64
2022/07/31 02:51:14;;;;;;;7.90;2.25;;;21.70;99.90;22.30;99007.00;;;;5002634;28;86724;-64
2022/07/31 02:53:41;;;;;;;5.15;1.88;;;22.30;99.90;22.90;99008.00;;;;4998353;28;87465;-64
2022/07/31 02:56:10;;;;;;;6.22;2.30;;;23.10;99.90;23.50;99006.00;;;;5015984;28;87322;-64
2022/07/31 02:58:42;;;;;;;4.20;1.98;;;23.50;99.70;24.10;99004.00;;;;5000300;28;88429;-64
2022/07/31 03:01:16;;;;;;;5.65;2.10;;;;;24.70;99004.00;;;;5002183;28;87494;-65
2022/07/31 03:03:43;;;;;;;8.32;2.40;;;;;25.00;99001.00;;;;5001600;28;87674;-64
2022/07/31 03:06:10;;;;;;;9.98;2.03;;;24.30;99.90;25.10;99003.00;;;;5002152;28;87508;-65
2022/07/31 03:08:37;;;;;;;6.00;2.10;;;24.60;99.90;25.60;99009.00;;;;5001552;28;87400;-65
2022/07/31 03:11:05;;;;;;;5.70;2.22;;;25.00;96.10;25.90;99005.00;;;;5001834;28;87536;-65
2022/07/31 03:13:35;;;;;;;8.13;2.55;;;25.40;95.40;26.20;99020.00;;;;5001009;28;88668;-65
2022/07/31 03:16:05;;;;;;;4.70;1.85;;;25.40;99.90;26.50;99013.00;;;;5002068;28;87470;-65
2022/07/31 03:18:33;;;;;;;6.22;2.22;;;;;26.70;99016.00;;;;5001780;28;87744;-65
2022/07/31 03:20:59;;;;;;;6.75;2.40;;;;;27.10;99011.00;;;;4985402;28;87320;-65
2022/07/31 03:23:27;;;;;;;8.57;2.47;;;26.10;94.20;27.10;99018.00;;;;4984108;28;89942;-65
2022/07/31 03:26:06;;;;;;;6.53;2.88;;;26.00;99.40;27.10;99022.00;;;;4986819;28;89591;-65
2022/07/31 03:28:34;;;;;;;6.22;2.47;;;26.10;94.50;27.10;99020.00;;;;4994087;28;87094;-65
2022/07/31 03:31:02;;;;;;;8.77;2.47;;;;;27.30;99024.00;;;;5018950;28;87461;-65
2022/07/31 03:33:30;;;;;;;6.85;3.00;;;26.10;99.90;27.40;99026.00;;;;5018535;28;88337;-65
2022/07/31 03:35:56;;;;;;;8.27;2.45;;;26.90;99.90;27.60;99026.00;;;;5000035;28;87572;-65
2022/07/31 03:38:23;;;;;;;8.57;3.97;;;;;27.70;99033.00;;;;5018523;28;87297;-65
2022/07/31 03:40:51;;;;;;;6.53;3.13;;;;;27.70;99029.00;;;;5001452;28;86766;-65
2022/07/31 03:43:19;;;;;;;6.10;2.95;;;27.00;93.70;27.90;99031.00;;;;5000752;28;87704;-65
2022/07/31 03:45:47;;;;;;;9.73;3.03;;;26.90;93.70;27.80;99039.00;;;;5000939;28;87155;-65
2022/07/31 03:48:15;;;;;;;9.93;4.38;;;26.90;94.90;27.80;99038.00;;;;4981296;28;88667;-65
2022/07/31 03:50:43;;;;;;;5.72;3.28;;;27.30;99.90;27.80;99042.00;;;;4967037;28;87556;-65
2022/07/31 03:53:10;;;;;;;12.32;3.53;;;;;27.70;99044.00;;;;4987082;28;87388;-65
2022/07/31 03:55:41;;;;;;;13.75;4.13;;;;;27.60;99047.00;;;;4971901;28;89726;-65
2022/07/31 03:58:08;;;;;;;10.73;3.75;;;;;27.60;99043.00;;;;5004060;28;87054;-65
2022/07/31 04:00:35;;;;;;;12.25;4.07;;;;;27.50;99053.00;;;;5004370;28;88049;-63
2022/07/31 04:03:11;;;;;;;13.63;3.88;;;26.50;97.60;27.30;99056.00;;;;5004633;28;88394;-63
2022/07/31 04:06:00;;;;;;;8.73;3.42;;;;;27.20;99061.00;;;;5018313;28;89466;-63
2022/07/31 04:08:27;;;;;;;10.73;4.40;;;26.10;99.90;27.00;99056.00;;;;5003887;28;87786;-63
2022/07/31 04:10:53;;;;;;;9.07;3.28;;;26.40;99.90;27.20;99052.00;;;;5003055;28;87373;-63
2022/07/31 04:13:23;;;;;;;8.48;2.97;;;27.00;99.90;27.70;99047.00;;;;4991163;28;88842;-63
2022/07/31 04:15:50;;;;;;;11.35;4.20;;;;;27.70;99056.00;;;;5009051;28;89652;-63
2022/07/31 04:18:16;;;;;;;13.82;3.50;;;27.30;99.90;27.90;99054.00;;;;5004494;28;87387;-63
2022/07/31 04:20:45;;;;;;;8.38;3.80;;;;;27.80;99051.00;;;;5001735;28;87202;-63
2022/07/31 04:23:11;;;;;;;12.05;3.80;;;;;27.90;99055.00;;;;5004348;28;87653;-63
2022/07/31 04:26:04;;;;;;;11.40;3.75;;;;;28.00;99058.00;;;;5017246;28;87273;-63
2022/07/31 04:28:36;;;;;;;9.73;4.75;;;27.40;99.90;28.00;99061.00;;;;4984457;28;87448;-63
2022/07/31 04:31:02;;;;;;;8.70;3.80;;;26.90;99.90;27.80;99061.00;;;;5003064;28;86310;-63
2022/07/31 04:33:32;;;;;;;13.40;4.22;;;;;27.70;99062.00;;;;5003417;28;87637;-62
2022/07/31 04:35:59;;;;;;;10.88;3.95;;;;;27.50;99056.00;;;;5001559;28;89301;-63
2022/07/31 04:38:26;;;;;;;12.32;4.40;;;;;27.40;99054.00;;;;5000715;28;88044;-63
2022/07/31 04:40:53;;;;;;;11.23;3.50;;;26.20;99.90;27.30;99057.00;;;;4984801;28;88528;-63
2022/07/31 04:43:19;;;;;;;14.18;3.90;;;;;27.10;99059.00;;;;4995048;28;87636;-63
2022/07/31 04:45:46;;;;;;;9.52;3.58;;;;;27.00;99059.00;;;;5020367;28;89401;-63
2022/07/31 04:48:12;;;;;;;12.30;4.03;;;;;27.20;99049.00;;;;5021927;28;86983;-63
2022/07/31 04:50:39;;;;;;;11.88;4.00;;;;;27.40;99049.00;;;;5003418;28;87781;-63
2022/07/31 04:53:06;;;;;;;11.05;3.53;;;;;27.50;99047.00;;;;5000064;28;87399;-63
2022/07/31 04:55:36;;;;;;;8.00;3.40;;;;;27.50;99040.00;;;;4974572;28;88122;-63
2022/07/31 04:58:02;;;;;;;5.78;3.33;;;;;27.70;99048.00;;;;5020855;28;86907;-63
2022/07/31 05:00:29;;;;;;;8.75;2.90;;;;;27.40;99042.00;;;;5002976;28;87011;-63
2022/07/31 05:02:56;;;;;;;8.55;3.05;;;;;27.80;99041.00;;;;5006586;28;88537;-63
2022/07/31 05:05:23;;;;;;;9.95;3.15;;;26.60;99.90;27.80;99042.00;;;;5003243;28;88052;-63
2022/07/31 05:07:49;;;;;;;6.88;2.38;;;26.50;99.90;27.70;99050.00;;;;5020695;28;87142;-63
2022/07/31 05:13:05;;;;;;;5.65;3.00;;;;;28.10;99039.00;;;;5003179;28;87820;-63
2022/07/31 05:15:33;;;;;;;6.20;2.58;;;;;28.10;99037.00;;;;5003742;28;87480;-63
2022/07/31 05:17:59;;;;;;;5.57;2.60;;;;;28.10;99039.00;;;;5020619;28;87442;-63
2022/07/31 05:20:44;;;;;;;4.15;2.10;;;;;28.10;99034.00;;;;5021518;28;86283;-63
2022/07/31 05:23:27;;;;;;;5.25;2.20;;;;;28.20;99029.00;;;;5002386;28;87601;-63
2022/07/31 05:26:13;;;;;;;7.63;2.80;;;;;27.80;99028.00;;;;5020586;28;87464;-63
2022/07/31 05:28:40;;;;;;;7.25;2.22;;;26.30;92.90;27.10;99018.00;;;;5003145;28;88342;-62
2022/07/31 05:31:08;;;;;;;4.95;1.85;;;26.50;92.60;27.20;99023.00;;;;4986206;28;87777;-63
2022/07/31 05:33:35;;;;;;;10.18;1.90;;;27.00;99.90;27.60;99016.00;;;;5000461;28;87753;-63
2022/07/31 05:36:03;;;;;;;5.93;1.95;;;27.30;92.30;27.70;99017.00;;;;5000380;28;88099;-62
2022/07/31 05:38:30;;;;;;;7.13;1.58;;;;;27.70;99012.00;;;;5017448;28;87229;-63
2022/07/31 05:41:22;;;;;;;5.57;1.90;;;26.40;99.90;27.80;99023.00;;;;4986033;28;87370;-63
2022/07/31 05:44:06;;;;;;;4.97;1.40;;;27.30;97.80;28.00;99016.00;;;;5020533;28;88484;-63
2022/07/31 05:46:39;;;;;;;4.30;1.77;;;27.70;95.00;28.20;99014.00;;;;5002632;28;87900;-63
2022/07/31 05:49:06;;;;;;;10.15;2.03;;;;;28.20;99011.00;;;;5019064;28;87436;-65
2022/07/31 05:51:33;;;;;;;6.18;1.83;;;;;28.10;99014.00;;;;5002296;28;87181;-64
2022/07/31 05:53:59;;;;;;;4.35;1.38;;;27.60;99.90;28.30;99011.00;;;;4986665;28;88592;-64
2022/07/31 05:56:44;;;;;;;7.07;1.48;;;;;28.30;99012.00;;;;5018248;28;87629;-65
2022/07/31 05:59:12;;;;;;;2.78;1.10;;;;;28.50;99020.00;;;;5002155;28;87319;-64
2022/07/31 06:01:39;;;;;;;2.38;1.17;;;27.60;91.30;28.30;99017.00;;;;5002026;28;87724;-64
2022/07/31 06:04:06;;;;;;;3.10;1.50;;;;;28.30;99007.00;;;;4986142;28;87867;-64
2022/07/31 06:06:39;;;;;;;3.30;1.33;;;;;28.20;99020.00;;;;5010935;28;87345;-65
2022/07/31 06:09:06;;;;;;;3.47;1.50;;;;;27.80;99031.00;;;;5025640;28;87131;-64
2022/07/31 06:11:38;;;;;;;6.80;2.28;;;;;27.50;99025.00;;;;5002237;28;86477;-65
2022/07/31 06:14:05;;;;;;;6.63;1.60;;;;;27.10;99020.00;;;;4989344;28;87566;-65
2022/07/31 06:16:49;;;;;;;1.83;1.10;;;26.40;99.90;26.90;99022.00;;;;4999757;28;88307;-65
2022/07/31 06:19:15;;;;;;;2.15;0.80;;;25.90;99.90;26.50;99023.00;;;;4998092;28;88030;-65
2022/07/31 06:21:42;;;;;;;1.08;0.60;;;;;25.60;99024.00;;;;5019922;28;87793;-64
2022/07/31 06:24:08;;;;;;;4.88;0.80;;;;;25.00;99029.00;;;;5001314;28;87518;-64
2022/07/31 06:26:42;;;;;;;1.05;0.60;;;;;24.40;99029.00;;;;4998429;28;87295;-65
2022/07/31 06:29:09;;;;;;;1.13;0.70;;;;;23.70;99033.00;;;;5017481;28;87029;-64
2022/07/31 06:31:36;;;;;;;3.63;1.05;;;;;23.20;99038.00;;;;5002055;28;87347;-64
2022/07/31 06:34:03;;;;;;;3.38;0.82;;;22.50;99.90;22.80;99033.00;;;;5000774;28;87685;-64
2022/07/31 06:36:37;;;;;;;1.67;0.60;;;;;22.50;99029.00;;;;4983741;28;87687;-63
2022/07/31 06:39:06;;;;;;;1.95;0.60;;;21.90;92.10;22.40;99035.00;;;;5001458;28;87370;-64
2022/07/31 06:41:47;;;;;;;1.40;0.60;;;;;22.20;99036.00;;;;5019213;28;87362;-64
2022/07/31 06:44:31;;;;;;;2.33;0.68;;;21.60;92.50;22.20;99028.00;;;;5018201;28;89052;-64
2022/07/31 06:47:20;;;;;;;1.02;0.50;;;22.10;88.40;22.20;99032.00;;;;4983755;28;88148;-65
2022/07/31 06:49:53;;;;;;;1.88;0.60;;;22.20;87.50;22.40;99009.00;;;;4999571;28;87400;-65
2022/07/31 06:52:20;;;;;;;0.93;0.60;;;;;22.60;99013.00;;;;4980655;28;87352;-65
2022/07/31 06:54:46;;;;;;;1.77;1.10;;;;;22.80;99007.00;;;;4981543;28;87612;-64
2022/07/31 06:57:13;;;;;;;1.00;0.57;;;;;23.00;99013.00;;;;4995190;28;88111;-64
2022/07/31 06:59:40;;;;;;;0.80;0.63;;;23.60;99.90;23.40;99011.00;;;;4975273;28;87408;-64
2022/07/31 07:02:07;;;;;;;0.80;0.50;;;23.60;99.90;23.60;99009.00;;;;4977988;28;86376;-64
2022/07/31 07:04:34;;;;;;;1.30;0.77;;;23.60;99.20;23.60;99013.00;;;;4961632;28;88152;-65
2022/07/31 07:07:00;;;;;;;1.95;0.90;;;23.60;99.90;23.60;99012.00;;;;4980531;28;87230;-65
2022/07/31 07:09:26;;;;;;;2.53;0.80;;;;;23.60;99011.00;;;;4981012;28;88400;-65
2022/07/31 07:11:53;;;;;;;2.63;1.00;;;;;23.50;99014.00;;;;4997986;28;87932;-64
2022/07/31 07:14:19;;;;;;;4.75;1.42;;;23.80;99.90;23.60;99007.00;;;;4979311;28;89922;-65
2022/07/31 07:16:46;;;;;;;4.43;1.50;;;;;23.70;99013.00;;;;4977760;28;87360;-64
2022/07/31 07:19:12;;;;;;;3.58;1.25;;;23.70;89.40;23.60;99008.00;;;;4980258;28;87312;-64
2022/07/31 07:21:38;;;;;;;1.50;1.00;;;;;23.60;99014.00;;;;4994096;28;87761;-64
2022/07/31 07:24:05;;;;;;;3.28;1.27;;;;;23.80;99001.00;;;;4977097;28;88923;-64
2022/07/31 07:26:44;;;;;;;4.15;1.45;;;24.10;99.90;24.00;99013.00;;;;4980988;28;87283;-65
2022/07/31 07:29:10;;;;;;;4.72;1.50;;;;;24.00;99002.00;;;;4983628;28;87084;-64
2022/07/31 07:31:37;;;;;;;4.32;1.23;;;23.60;83.50;23.70;99007.00;;;;4984356;28;87056;-64
2022/07/31 07:34:05;;;;;;;2.47;1.40;;;23.60;99.90;23.50;99001.00;;;;4978744;28;89603;-64
2022/07/31 07:36:32;;;;;;;3.63;1.23;;;23.20;82.60;23.50;99005.00;;;;4975807;28;88377;-64
2022/07/31 07:39:04;;;;;;;2.30;1.08;;;;;23.50;98997.00;;;;4984558;28;86939;-65
2022/07/31 07:41:32;;;;;;;2.80;1.10;;;;;23.40;99001.00;;;;4983860;28;87624;-64
2022/07/31 07:44:00;;;;;;;2.35;1.00;;;23.30;99.90;23.50;98994.00;;;;4981127;28;88200;-65
2022/07/31 07:46:28;;;;;;;2.70;1.00;;;;;23.50;98997.00;;;;4993875;28;87397;-64
2022/07/31 07:49:05;;;;;;;4.40;1.08;;;;;23.80;98992.00;;;;4987663;28;87541;-63
2022/07/31 07:51:55;;;;;;;2.25;1.13;;;;;24.00;98987.00;;;;4983599;28;87113;-63
2022/07/31 07:54:42;;;;;;;2.17;1.00;;;;;24.00;98987.00;;;;4997919;28;87813;-63
2022/07/31 07:57:20;;;;;;;1.27;0.90;;;23.70;99.90;23.90;98994.00;;;;5021472;28;87540;-63
2022/07/31 08:00:09;;;;;;;1.52;0.98;;;23.70;91.80;23.60;98994.00;;;;5021884;28;88920;-63
2022/07/31 08:02:55;;;;;;;1.95;1.00;;;23.70;99.90;23.60;98991.00;;;;5022226;28;87031;-63
2022/07/31 08:05:22;;;;;;;2.80;1.30;;;;;23.90;98988.00;;;;5003344;28;87752;-63
2022/07/31 08:07:48;;;;;;;5.60;1.00;;;;;23.70;98996.00;;;;5021966;28;88293;-63
2022/07/31 08:10:33;;;;;;;4.05;1.20;;;;;23.80;98984.00;;;;5017161;28;86886;-63
2022/07/31 08:13:08;;;;;;;2.00;0.95;;;23.60;99.90;23.80;98992.00;;;;5005715;28;87381;-63
2022/07/31 08:16:06;;;;;;;2.33;0.85;;;24.00;93.30;24.00;98989.00;;;;4961352;28;88697;-63
2022/07/31 08:18:40;;;;;;;5.47;1.15;;;23.80;99.90;24.00;98989.00;;;;4986677;28;88494;-63
2022/07/31 08:21:07;;;;;;;1.55;0.90;;;;;23.90;98987.00;;;;5003807;28;87093;-62
2022/07/31 08:23:33;;;;;;;3.60;1.10;;;;;24.20;98992.00;;;;5003772;28;87467;-64
2022/07/31 08:26:03;;;;;;;2.40;1.05;;;;;24.20;98987.00;;;;5002507;28;90586;-63
2022/07/31 08:28:30;;;;;;;4.78;1.17;;;;;24.10;98990.00;;;;4980966;28;88215;-63
2022/07/31 08:30:56;;;;;;;5.95;1.17;;;23.30;95.00;23.60;99001.00;;;;5019665;28;87449;-64
2022/07/31 08:33:24;;;;;;;4.03;1.20;;;;;23.30;98998.00;;;;5001008;28;87346;-63
2022/07/31 08:35:55;;;;;;;2.70;1.30;;;;;23.30;98991.00;;;;5001643;28;88558;-63
2022/07/31 08:38:21;;;;;;;2.53;1.30;;;23.00;85.00;23.40;98985.00;;;;5002321;28;87512;-62
2022/07/31 08:41:07;;;;;;;5.47;1.42;;;;;23.60;98988.00;;;;5003333;28;87378;-62
2022/07/31 08:43:34;;;;;;;1.90;1.30;;;;;23.60;98986.00;;;;5002509;28;86340;-62
2022/07/31 08:46:03;;;;;;;4.90;1.58;;;23.70;86.40;23.80;98976.00;;;;5020169;28;87635;-62
2022/07/31 08:48:40;;;;;;;2.95;1.00;;;23.50;81.30;23.80;98978.00;;;;4987837;28;88434;-62
2022/07/31 08:51:12;;;;;;;4.60;0.95;;;23.60;81.40;23.90;98975.00;;;;5020130;28;87895;-63
2022/07/31 08:53:59;;;;;;;2.90;1.33;;;23.70;81.80;24.00;98981.00;;;;5019997;28;87397;-63
2022/07/31 08:56:27;;;;;;;6.30;1.30;;;23.60;82.60;24.10;98982.00;;;;4985829;28;87090;-62
2022/07/31 08:58:55;;;;;;;5.95;1.70;;;23.70;82.80;24.00;98978.00;;;;4999377;28;87419;-62
2022/07/31 09:01:22;;;;;;;9.00;1.80;;;;;23.80;98983.00;;;;5009206;28;87226;-62
2022/07/31 09:03:49;;;;;;;6.60;1.65;;;23.60;95.80;23.80;98983.00;;;;5019346;28;87964;-62
2022/07/31 09:06:15;;;;;;;2.10;1.10;;;;;23.60;98981.00;;;;5020092;28;87514;-62
2022/07/31 09:08:42;;;;;;;2.42;1.40;;;;;23.60;98981.00;;;;5008428;28;87466;-63
2022/07/31 09:11:12;;;;;;;13.43;1.50;;;23.30;96.10;23.60;98981.00;;;;5023952;28;87082;-63
2022/07/31 09:14:02;;;;;;;2.85;1.10;;;23.00;82.60;23.30;98979.00;;;;5005735;28;87407;-63
2022/07/31 09:16:46;;;;;;;2.78;1.63;;;22.70;83.00;23.00;98990.00;;;;4997706;28;88690;-62
2022/07/31 09:19:13;;;;;;;3.72;1.38;;;22.30;98.00;22.70;98976.00;;;;5001907;28;89557;-63
2022/07/31 09:21:43;;;;;;;5.25;1.10;;;22.30;89.30;22.70;98976.00;;;;4986765;28;87022;-63
2022/07/31 09:24:12;;;;;;;4.32;1.10;;;22.20;93.10;22.60;98973.00;;;;5005008;28;87150;-62
2022/07/31 09:26:39;;;;;;;2.03;1.10;;;22.30;84.20;22.60;98971.00;;;;5018931;28;87084;-73
2022/07/31 09:29:10;;;;;;;3.00;1.40;;;;;22.60;98973.00;;;;5005442;28;87253;-62
2022/07/31 09:31:38;;;;;;;1.70;0.80;;;22.40;94.40;22.60;98975.00;;;;4995107;28;87478;-63
2022/07/31 09:34:43;;;;;;;2.80;1.20;;;22.40;95.00;22.70;98974.00;;;;4992898;28;86206;-62
2022/07/31 09:37:15;;;;;;;2.58;1.70;;;;;23.00;98963.00;;;;5003883;28;88718;-62
2022/07/31 09:40:01;;;;;;;3.85;1.33;;;23.40;99.90;23.30;98968.00;;;;5021869;28;89452;-63
2022/07/31 09:42:50;;;;;;;5.78;1.65;;;;;23.60;98963.00;;;;5008144;28;88210;-62
2022/07/31 09:45:23;;;;;;;2.25;1.17;;;23.70;82.00;23.80;98959.00;;;;5000722;28;87307;-63
2022/07/31 09:48:11;;;;;;;2.08;1.05;;;24.00;80.30;24.10;98963.00;;;;5024979;28;88570;-63
2022/07/31 09:50:45;;;;;;;2.97;1.10;;;24.20;91.20;24.30;98967.00;;;;4985232;28;89094;-63
2022/07/31 09:53:13;;;;;;;4.57;1.00;;;;;24.10;98977.00;;;;4999062;28;87536;-62
2022/07/31 09:55:55;;;;;;;4.40;1.00;;;23.80;75.70;24.10;98975.00;;;;5016488;28;87323;-63
2022/07/31 09:58:23;;;;;;;4.13;1.10;;;23.80;75.90;24.10;98973.00;;;;4998496;28;87727;-63
2022/07/31 10:00:53;;;;;;;6.10;2.15;;;23.80;78.20;24.10;98970.00;;;;4999224;28;88020;-63
2022/07/31 10:03:21;;;;;;;3.95;1.17;;;23.60;79.70;23.80;98969.00;;;;4993542;28;87470;-62
2022/07/31 10:05:49;;;;;;;3.47;1.20;;;23.40;76.30;23.80;98979.00;;;;5008919;28;88083;-63
2022/07/31 10:08:16;;;;;;;3.50;1.10;;;23.40;78.90;23.80;98976.00;;;;5004800;28;88625;-62
2022/07/31 10:11:03;;;;;;;4.30;1.30;;;23.30;92.50;23.80;98971.00;;;;5015524;28;89639;-63
2022/07/31 10:13:44;;;;;;;6.45;1.50;;;23.30;80.50;23.80;98975.00;;;;5005909;28;87883;-62
2022/07/31 10:16:11;;;;;;;4.97;1.20;;;23.30;99.90;23.70;98977.00;;;;5024034;28;87371;-63
2022/07/31 10:18:48;;;;;;;2.60;1.20;;;23.20;82.30;23.60;98975.00;;;;5019857;28;87645;-63
2022/07/31 10:21:43;;;;;;;8.38;1.48;;;23.10;82.40;23.50;98972.00;;;;4984059;28;87415;-63
2022/07/31 10:24:18;;;;;;;1.85;1.20;;;23.30;99.90;23.40;98970.00;;;;4966759;28;87504;-63
2022/07/31 10:26:45;;;;;;;3.60;1.40;;;23.40;83.10;23.50;98964.00;;;;5009568;28;87039;-64
2022/07/31 10:29:11;;;;;;;5.00;1.30;;;23.60;82.20;23.80;98968.00;;;;4984638;28;88214;-63
2022/07/31 10:31:39;;;;;;;5.18;1.10;;;;;23.90;98962.00;;;;4968407;28;88748;-64
2022/07/31 10:34:05;;;;;;;3.90;1.17;;;;;24.10;98964.00;;;;5018060;28;88266;-65
2022/07/31 10:36:57;;;;;;;3.13;1.10;;;24.10;78.10;24.30;98970.00;;;;5020255;28;86940;-65
2022/07/31 10:40:06;;;;;;;2.00;1.00;;;24.00;75.20;24.30;98962.00;;;;5001426;28;88808;-65
2022/07/31 10:42:51;;;;;;;6.15;1.30;;;24.50;99.20;24.80;98959.00;;;;5004048;28;88551;-65
2022/07/31 10:45:18;;;;;;;3.97;1.40;;;;;25.00;98960.00;;;;5015166;28;87352;-65
2022/07/31 10:48:02;;;;;;;3.35;1.27;;;24.80;83.90;25.30;98956.00;;;;5020449;28;87782;-65
2022/07/31 10:51:08;;;;;;;3.13;1.67;;;25.00;75.50;25.50;98957.00;;;;4999387;28;87625;-64
2022/07/31 10:54:02;;;;;;;1.92;1.20;;;24.60;81.10;24.90;98961.00;;;;5016441;28;87164;-66
2022/07/31 10:56:47;;;;;;;6.35;1.20;;;;;24.60;98957.00;;;;5019685;28;87597;-65
2022/07/31 10:59:37;;;;;;;3.97;1.35;;;;;24.60;98954.00;;;;5004335;28;87339;-65
2022/07/31 11:02:36;;;;;;;4.25;1.30;;;24.50;99.90;24.80;98953.00;;;;5002628;28;89212;-65
2022/07/31 11:05:31;;;;;;;3.20;0.98;;;;;25.00;98947.00;;;;4999957;28;89301;-64
2022/07/31 11:08:11;;;;;;;4.80;1.65;;;;;25.20;98934.00;;;;5001079;28;87468;-64
2022/07/31 11:10:56;;;;;;;2.83;1.33;;;25.10;92.90;25.40;98948.00;;;;5018943;28;87112;-65
2022/07/31 11:13:50;;;;;;;2.38;1.30;;;25.20;76.80;25.50;98940.00;;;;5017845;28;88813;-66
2022/07/31 11:16:57;;;;;;;1.48;1.10;;;25.20;74.70;25.50;98932.00;;;;5005724;28;87396;-65
2022/07/31 11:19:43;;;;;;;2.10;1.00;;;25.50;74.90;25.80;98932.00;;;;5019220;28;87389;-65
2022/07/31 11:22:14;;;;;;;2.47;1.20;;;25.60;99.90;25.90;98931.00;;;;5001329;28;86447;-64
2022/07/31 11:24:42;;;;;;;3.22;1.33;;;;;25.90;98932.00;;;;5018760;28;87375;-64
2022/07/31 11:27:08;;;;;;;3.28;1.15;;;25.70;99.60;25.90;98930.00;;;;4984119;28;87311;-65
2022/07/31 11:29:37;;;;;;;4.72;1.52;;;25.70;75.30;26.10;98935.00;;;;5027374;28;87943;-65
2022/07/31 11:32:14;;;;;;;2.42;1.13;;;25.70;74.10;26.00;98932.00;;;;5018613;28;87227;-65
2022/07/31 11:34:53;;;;;;;3.42;1.13;;;25.50;73.00;26.00;98919.00;;;;5018639;28;87712;-65
2022/07/31 11:37:27;;;;;;;3.88;1.38;;;25.60;73.00;26.00;98927.00;;;;5017131;28;89257;-66
2022/07/31 11:39:55;;;;;;;2.38;1.15;;;25.50;98.40;26.00;98929.00;;;;5018448;28;87359;-65
2022/07/31 11:42:24;;;;;;;2.78;1.20;;;25.60;73.10;26.00;98924.00;;;;5000383;28;87396;-64
2022/07/31 11:44:51;;;;;;;1.38;0.90;;;25.40;97.00;26.10;98931.00;;;;5018343;28;87247;-65
2022/07/31 11:47:18;;;;;;;2.30;0.95;;;;;26.10;98920.00;;;;5022132;28;87298;-63
2022/07/31 11:49:44;;;;;;;4.13;1.00;;;25.60;81.10;26.10;98918.00;;;;5019156;28;87309;-62
2022/07/31 11:52:11;;;;;;;2.63;1.20;;;25.70;73.40;26.10;98926.00;;;;5018892;28;87237;-64